Aérodrome :
LOGIN :

S'inscrire | Disclaimer

   EN    FR    IT 

 










Légende :    VFR   VFR Marginal   IFR   IFR Intensif   IFR Très Intensif
Visi : 
Plafond : 
>= 8 km
>= 3000ft
5 à 8 km
1000 à 3000 ft
1500m à 5 km
500 à 1000 ft
800 à 1500m
200 à 500 ft
< 800m
< 200 ft
Symboles :   Orages  Brouillard  Fortes neiges  Fortes précipitations  Vent > 20 kt
SIGMETs :   Divers  Orages  Givrage  Turbulence  Onde Orograph.  Cendres Volcan.






- Altitude de l'aérodrome : 1649 ft
- Code IATA : HHN


EDFH - Frankfurt-Hahn Rhineland-Palatinate

DERNIER METAR :
  • 140320Z 24003KT 190V260 CAVOK 15/10 Q1015

METARs EXPIRÉS :
  • 140250Z 17005KT CAVOK 13/10 Q1015
  • 140220Z 21008KT CAVOK 14/10 Q1015
  • 140150Z 22007KT CAVOK 15/10 Q1015
  • 140120Z 22008KT CAVOK 16/10 Q1015
  • 140050Z 21007KT CAVOK 15/10 Q1015

TAF TAF EDFH
Valide du 14 à 00h jusqu'au 15 à 00h UTC


132300Z 1400/1424 23009KT CAVOK
BECMG 1401/1404 16007KT
PROB30
TEMPO 1403/1408 2500 BCFG
BECMG 1408/1410 16012KT



MET'MAP, la Météo Aéronautique d'un coup d'oeil ! - Copyright ORBIFLY Décembre 2007 - Disclaimer

ORBIFLY MET'MAP TEAM :

Programmation & Développement : Alexandra Zaïnal
Conception & Développement : Baudouin d'Aumeries
Co-Programmation & Développement : Marc-Olivier Méhu
Soutien technique & logistique : Manuel Goepfert

Contact : metmap@orbifly.com




SOURCES & CREDITS :

   NOAA